Time;durP1;ratioP1;P1;durP2;ratioP2;P2;SDS_P1;SDS_P2;PMS_P1;PMS_P2;Temp;Humidity;BMP_temperature;BMP_pressure;BME280_temperature;BME280_humidity;BME280_pressure;Samples;Min_cycle;Max_cycle;Signal;HPM_P1;HPM_P2
2023/03/31 00:08:04;;;;;;;9.8;6.3;;;;;;;10.4;78.3;97970;;;;
2023/03/31 00:18:04;;;;;;;15.8;10.8;;;;;;;10.4;78.9;97970;;;;
2023/03/31 00:29:04;;;;;;;15.8;10.8;;;;;;;10.4;79.2;97970;;;;
2023/03/31 00:39:05;;;;;;;15.8;10.8;;;;;;;10.5;79.2;97960;;;;
2023/03/31 00:50:05;;;;;;;16.6;12.2;;;;;;;10.7;78.5;97950;;;;
2023/03/31 01:00:08;;;;;;;16.6;12.2;;;;;;;10.8;77.8;97950;;;;
2023/03/31 01:10:04;;;;;;;16.6;12.2;;;;;;;10.8;76.6;97950;;;;
2023/03/31 01:21:05;;;;;;;13.2;9;;;;;;;10.9;76.1;97960;;;;
2023/03/31 01:31:04;;;;;;;13.2;9;;;;;;;10.9;76;97950;;;;
2023/03/31 01:41:04;;;;;;;13.2;9;;;;;;;10.8;75.6;97950;;;;
2023/03/31 01:51:04;;;;;;;12.7;8.1;;;;;;;10.8;75.5;97950;;;;
2023/03/31 02:01:04;;;;;;;12.7;8.1;;;;;;;10.7;75.3;97960;;;;
2023/03/31 02:12:04;;;;;;;12.7;8.1;;;;;;;10.6;75.4;97960;;;;
2023/03/31 02:22:04;;;;;;;10.5;6.4;;;;;;;10.5;75.5;97940;;;;
2023/03/31 02:32:04;;;;;;;10.5;6.4;;;;;;;10.5;75.4;97940;;;;
2023/03/31 02:42:06;;;;;;;10.5;6.4;;;;;;;10.4;75.8;97950;;;;
2023/03/31 02:53:04;;;;;;;8;4.5;;;;;;;10.4;75.9;97950;;;;
2023/03/31 03:04:05;;;;;;;8;4.5;;;;;;;10.3;75.8;97950;;;;
2023/03/31 03:15:04;;;;;;;9.4;3.6;;;;;;;10;75.9;97950;;;;
2023/03/31 03:26:04;;;;;;;9.4;3.6;;;;;;;9.9;76.4;97950;;;;
2023/03/31 03:36:06;;;;;;;9.4;3.6;;;;;;;9.9;76.7;97950;;;;
2023/03/31 03:47:04;;;;;;;5.4;3.2;;;;;;;9.9;76.8;97940;;;;
2023/03/31 03:58:04;;;;;;;5.4;3.2;;;;;;;9.9;76.8;97940;;;;
2023/03/31 04:08:05;;;;;;;5.4;3.2;;;;;;;9.9;76.7;97910;;;;
2023/03/31 04:19:04;;;;;;;5.1;2.8;;;;;;;9.9;76.4;97910;;;;
2023/03/31 04:29:04;;;;;;;5.1;2.8;;;;;;;9.8;76.2;97890;;;;
2023/03/31 04:39:04;;;;;;;5.1;2.8;;;;;;;9.6;76.5;97880;;;;
2023/03/31 04:50:04;;;;;;;5.3;2.6;;;;;;;9.6;77.4;97890;;;;
2023/03/31 05:00:06;;;;;;;5.3;2.6;;;;;;;9.6;77.5;97890;;;;
2023/03/31 05:11:05;;;;;;;5.3;2.6;;;;;;;9.7;77.6;97880;;;;
2023/03/31 05:21:04;;;;;;;6.4;3.9;;;;;;;9.9;77.4;97870;;;;
2023/03/31 05:32:04;;;;;;;6.4;3.9;;;;;;;10.1;77.6;97870;;;;
2023/03/31 05:43:05;;;;;;;6.4;3.9;;;;;;;10.5;76.9;97860;;;;
2023/03/31 05:54:05;;;;;;;7.3;4.4;;;;;;;10.9;75.9;97860;;;;
2023/03/31 06:04:04;;;;;;;7.3;4.4;;;;;;;11;75.2;97850;;;;
2023/03/31 06:14:04;;;;;;;7.7;5.1;;;;;;;11;74.5;97850;;;;
2023/03/31 06:24:04;;;;;;;7.7;5.1;;;;;;;11.1;74;97840;;;;
2023/03/31 06:35:04;;;;;;;7.7;5.1;;;;;;;11.4;73.4;97850;;;;
2023/03/31 06:45:05;;;;;;;9.1;5.1;;;;;;;11.7;72.9;97840;;;;
2023/03/31 06:56:05;;;;;;;9.1;5.1;;;;;;;12;72;97850;;;;
2023/03/31 07:06:05;;;;;;;9.1;5.1;;;;;;;12.2;70;97840;;;;
2023/03/31 07:17:04;;;;;;;6;3.9;;;;;;;12.8;69.2;97820;;;;
2023/03/31 07:27:05;;;;;;;6;3.9;;;;;;;12.9;67.2;97820;;;;
2023/03/31 07:37:05;;;;;;;6;3.9;;;;;;;13.1;66.1;97810;;;;
2023/03/31 07:47:05;;;;;;;5.2;2.9;;;;;;;13.3;66.1;97810;;;;
2023/03/31 07:58:05;;;;;;;5.2;2.9;;;;;;;13.4;63.8;97800;;;;
2023/03/31 08:08:04;;;;;;;5.2;2.9;;;;;;;13.7;63.9;97790;;;;
2023/03/31 08:19:04;;;;;;;5.6;2.7;;;;;;;14.4;62.3;97770;;;;
2023/03/31 08:30:05;;;;;;;5.6;2.7;;;;;;;14.9;61.5;97760;;;;
2023/03/31 08:40:08;;;;;;;5.6;2.7;;;;;;;15.2;60;97740;;;;
2023/03/31 08:51:05;;;;;;;6.7;2.9;;;;;;;15.1;59.8;97730;;;;
2023/03/31 09:02:05;;;;;;;6.7;2.9;;;;;;;15.9;59.4;97710;;;;
2023/03/31 09:13:05;;;;;;;6.7;2.9;;;;;;;16.4;58.1;97700;;;;
2023/03/31 09:24:05;;;;;;;4.6;2.3;;;;;;;16.3;56.7;97680;;;;
2023/03/31 09:35:06;;;;;;;4.6;2.3;;;;;;;16.3;56.2;97660;;;;
2023/03/31 09:45:05;;;;;;;6;2.2;;;;;;;16.7;54.4;97640;;;;
2023/03/31 09:56:06;;;;;;;6;2.2;;;;;;;16.5;54.9;97620;;;;
2023/03/31 10:06:05;;;;;;;6;2.2;;;;;;;16.6;54.3;97610;;;;
2023/03/31 10:16:07;;;;;;;5.5;2.3;;;;;;;16.8;54.1;97590;;;;
2023/03/31 10:26:05;;;;;;;5.5;2.3;;;;;;;17.2;53.8;97570;;;;
2023/03/31 10:37:05;;;;;;;5.5;2.3;;;;;;;17.1;51.7;97560;;;;
2023/03/31 10:48:05;;;;;;;7;1.9;;;;;;;16.7;53.4;97540;;;;
2023/03/31 10:58:05;;;;;;;7;1.9;;;;;;;16.7;53.7;97550;;;;
2023/03/31 11:08:05;;;;;;;7;1.9;;;;;;;17.1;51.9;97530;;;;
2023/03/31 11:19:05;;;;;;;4.4;1.8;;;;;;;16.7;52.1;97520;;;;
2023/03/31 11:30:06;;;;;;;4.4;1.8;;;;;;;16.4;53.2;97520;;;;
2023/03/31 11:40:06;;;;;;;4.4;1.8;;;;;;;16.2;53.8;97500;;;;
2023/03/31 11:51:05;;;;;;;5.1;2.3;;;;;;;16.8;52.3;97500;;;;
2023/03/31 12:01:05;;;;;;;5.1;2.3;;;;;;;17.1;52;97480;;;;
2023/03/31 12:11:05;;;;;;;5.1;2.3;;;;;;;17.3;50.6;97470;;;;
2023/03/31 12:21:05;;;;;;;5.5;1.8;;;;;;;17.8;50.9;97460;;;;
2023/03/31 12:31:05;;;;;;;5.5;1.8;;;;;;;17.7;51.4;97430;;;;
2023/03/31 12:42:05;;;;;;;5.5;1.8;;;;;;;17.9;49.5;97410;;;;
2023/03/31 12:53:05;;;;;;;4.5;2;;;;;;;18.1;49.4;97400;;;;
2023/03/31 13:04:06;;;;;;;4.5;2;;;;;;;18.1;50.4;97370;;;;
2023/03/31 13:14:05;;;;;;;6;2.3;;;;;;;17.6;49.4;97360;;;;
2023/03/31 13:25:05;;;;;;;6;2.3;;;;;;;17.9;50.1;97340;;;;
2023/03/31 13:36:05;;;;;;;6;2.3;;;;;;;17.5;49.9;97320;;;;
2023/03/31 13:47:05;;;;;;;5.3;1.9;;;;;;;16.9;50.3;97300;;;;
2023/03/31 13:57:05;;;;;;;5.3;1.9;;;;;;;16.9;52.9;97300;;;;
2023/03/31 14:07:06;;;;;;;5.3;1.9;;;;;;;16.8;50.6;97290;;;;
2023/03/31 14:18:05;;;;;;;4.8;1.7;;;;;;;16.9;49.1;97290;;;;
2023/03/31 14:28:07;;;;;;;4.8;1.7;;;;;;;16;49;97290;;;;
2023/03/31 14:39:05;;;;;;;4.8;1.7;;;;;;;15.4;51;97290;;;;
2023/03/31 14:49:05;;;;;;;2.7;1.1;;;;;;;15.1;52.3;97280;;;;
2023/03/31 14:59:05;;;;;;;2.7;1.1;;;;;;;14.8;53.7;97260;;;;
2023/03/31 15:09:05;;;;;;;2.7;1.1;;;;;;;14.6;54.6;97240;;;;
2023/03/31 15:19:06;;;;;;;5.3;1.9;;;;;;;14.6;55.6;97220;;;;
2023/03/31 15:29:05;;;;;;;5.3;1.9;;;;;;;14.5;56.2;97210;;;;
2023/03/31 15:40:07;;;;;;;5.3;1.9;;;;;;;14.3;57.4;97200;;;;
2023/03/31 15:51:05;;;;;;;6.2;2;;;;;;;14.2;57.9;97170;;;;
2023/03/31 16:02:06;;;;;;;6.2;2;;;;;;;14.1;61;97150;;;;
2023/03/31 16:13:05;;;;;;;6.2;2;;;;;;;14.2;62;97130;;;;
2023/03/31 16:23:05;;;;;;;6.9;4.6;;;;;;;14;63.4;97120;;;;
2023/03/31 16:33:05;;;;;;;6.9;4.6;;;;;;;14;62.4;97100;;;;
2023/03/31 16:43:05;;;;;;;6.9;4.6;;;;;;;13.8;62.3;97090;;;;
2023/03/31 16:53:05;;;;;;;93.8;62;;;;;;;13.6;61.8;97090;;;;
2023/03/31 17:03:05;;;;;;;93.8;62;;;;;;;13.3;62.2;97090;;;;
2023/03/31 17:14:05;;;;;;;216.5;166.9;;;;;;;13;63;97080;;;;
2023/03/31 17:25:06;;;;;;;216.5;166.9;;;;;;;12.8;63.8;97070;;;;
2023/03/31 17:35:05;;;;;;;216.5;166.9;;;;;;;12.6;64.5;97050;;;;
2023/03/31 17:45:05;;;;;;;18.8;13.5;;;;;;;12.5;65.2;97040;;;;
2023/03/31 17:56:05;;;;;;;18.8;13.5;;;;;;;12.2;66.1;97030;;;;
2023/03/31 18:06:05;;;;;;;18.8;13.5;;;;;;;12.1;65.9;97030;;;;
2023/03/31 18:16:07;;;;;;;17.9;12.3;;;;;;;12;66.3;97020;;;;
2023/03/31 18:26:05;;;;;;;17.9;12.3;;;;;;;12;66.5;97010;;;;
2023/03/31 18:37:05;;;;;;;17.9;12.3;;;;;;;11.8;66.2;97020;;;;
2023/03/31 18:47:05;;;;;;;19;12.9;;;;;;;11.7;67.9;97020;;;;
2023/03/31 18:58:05;;;;;;;19;12.9;;;;;;;12;67;97020;;;;
2023/03/31 19:08:05;;;;;;;19;12.9;;;;;;;11.9;66.5;97010;;;;
2023/03/31 19:19:05;;;;;;;7.9;5.6;;;;;;;11.7;67.3;97020;;;;
2023/03/31 19:29:05;;;;;;;7.9;5.6;;;;;;;11.6;68.3;96990;;;;
2023/03/31 19:39:06;;;;;;;7.9;5.6;;;;;;;11.5;69.2;96990;;;;
2023/03/31 19:50:06;;;;;;;12.1;7.8;;;;;;;11.8;68.7;96970;;;;
2023/03/31 20:00:05;;;;;;;12.1;7.8;;;;;;;11.9;67.7;96970;;;;
2023/03/31 20:11:05;;;;;;;12.1;7.8;;;;;;;11.9;67.7;96970;;;;
2023/03/31 20:21:05;;;;;;;10.5;6.4;;;;;;;11.9;67.5;96970;;;;
2023/03/31 20:32:06;;;;;;;10.5;6.4;;;;;;;12;68.3;96960;;;;
2023/03/31 20:43:05;;;;;;;10.8;6.2;;;;;;;12.2;68.3;96960;;;;
2023/03/31 20:53:05;;;;;;;10.8;6.2;;;;;;;12.5;68.1;96980;;;;
2023/03/31 21:03:05;;;;;;;10.8;6.2;;;;;;;12.5;68.2;97000;;;;
2023/03/31 21:13:05;;;;;;;16.6;9.5;;;;;;;12.2;68.8;97000;;;;
2023/03/31 21:24:05;;;;;;;16.6;9.5;;;;;;;12;69.4;97000;;;;
2023/03/31 21:34:05;;;;;;;16.6;9.5;;;;;;;11.9;69.4;97000;;;;
2023/03/31 21:45:05;;;;;;;8.1;5;;;;;;;11.8;69.6;97000;;;;
2023/03/31 21:56:05;;;;;;;8.1;5;;;;;;;11.6;69.7;97000;;;;
2023/03/31 22:06:05;;;;;;;8.1;5;;;;;;;11.4;68.9;97000;;;;
2023/03/31 22:16:05;;;;;;;5.9;3.4;;;;;;;11.6;64.5;97020;;;;
2023/03/31 22:27:05;;;;;;;5.9;3.4;;;;;;;11.6;63.2;97010;;;;
2023/03/31 22:38:06;;;;;;;5.9;3.4;;;;;;;11.5;63.2;97010;;;;
2023/03/31 22:48:06;;;;;;;4.3;1.7;;;;;;;11.4;63.8;97010;;;;
2023/03/31 22:58:05;;;;;;;4.3;1.7;;;;;;;11.3;64.5;97010;;;;
2023/03/31 23:09:05;;;;;;;4.3;1.7;;;;;;;11.2;65.2;97000;;;;
2023/03/31 23:19:05;;;;;;;3.8;1.6;;;;;;;11;66.1;97020;;;;
2023/03/31 23:29:05;;;;;;;3.8;1.6;;;;;;;10.8;66.8;97010;;;;
2023/03/31 23:39:05;;;;;;;3.8;1.6;;;;;;;10.7;67.8;97010;;;;
2023/03/31 23:49:06;;;;;;;3;1.4;;;;;;;10.6;68.2;97000;;;;
2023/03/31 23:59:05;;;;;;;3;1.4;;;;;;;10.6;68.6;97010;;;;
